Safmarine Limpopo — 4RBK — position and weather

sailwx.info

Track history (hours):
 
Tides and Currents Weather Stations Pressure Air Temp Water Temp Dewpoint Dewpoint Depression Visibility Wind Speed Wind Dir Waves Ship Positions

Safmarine Limpopo

Last reported at 2014-Sep-13 21:34 UTC. Time now 2014-Sep-22 00:17 UTC.
Position N 43°34' W 005°42'.
Warning: this ship's position is 8 days out of date.

Length 140 m; draft 8.6 m.

Type: Ship (hazmat cat A). MMSI: 417222324.

Date/timePositionNaut miles runAvg speedWind from/ knotsBaromVisibWave heightAir tempDewpointWater temp
2014-Sep-13 21:34N 43°34' W 005°42'0 0.0
2014-Sep-13 20:34N 43°34' W 005°42'0 0.0
2014-Sep-13 19:33N 43°34' W 005°42'0 0.0
2014-Sep-13 18:34N 43°34' W 005°42'0 0.0
2014-Sep-13 17:34N 43°34' W 005°42'0 0.0
2014-Sep-13 16:34N 43°34' W 005°42'0 0.0
2014-Sep-13 15:34N 43°34' W 005°42'0 0.0
2014-Sep-13 14:33N 43°34' W 005°42'0 0.0
2014-Sep-13 13:34N 43°34' W 005°42'0 0.0
2014-Sep-13 12:34N 43°34' W 005°42'0 0.0
2014-Sep-13 11:33N 43°34' W 005°42'0 0.0
2014-Sep-13 10:34N 43°34' W 005°42'0 0.0
2014-Sep-13 09:34N 43°34' W 005°42'0 0.0
2014-Sep-13 08:34N 43°34' W 005°42'0 0.0
2014-Sep-13 07:33N 43°34' W 005°42'0 0.0
2014-Sep-13 06:34N 43°34' W 005°42'0 0.0
2014-Sep-13 05:34N 43°34' W 005°42'0 0.0
2014-Sep-13 04:33N 43°34' W 005°42'0 0.0
2014-Sep-13 03:34N 43°34' W 005°42'0 0.0
2014-Sep-13 02:34N 43°34' W 005°42'0 0.0
2014-Sep-13 01:34N 43°34' W 005°42'0 0.0
2014-Sep-13 00:33N 43°34' W 005°42'0 0.0
2014-Sep-12 23:34N 43°34' W 005°42'0 0.0
2014-Sep-12 22:34N 43°34' W 005°42'0 0.0
2014-Sep-12 21:34N 43°34' W 005°42'0 0.0
2014-Sep-12 20:34N 43°34' W 005°42'0 0.0
2014-Sep-12 19:34N 43°34' W 005°42'0 0.0
2014-Sep-12 18:33N 43°34' W 005°42'0 0.0
2014-Sep-12 17:34N 43°34' W 005°42'0 0.0
2014-Sep-12 16:34N 43°34' W 005°42'0 0.0
2014-Sep-12 15:34N 43°34' W 005°42'0 0.0
2014-Sep-12 14:34N 43°34' W 005°42'0 0.0
2014-Sep-12 13:34N 43°34' W 005°42'0 0.0
2014-Sep-12 12:34N 43°34' W 005°42'0 0.0
2014-Sep-12 11:34N 43°34' W 005°42'0 0.0
2014-Sep-12 10:33N 43°34' W 005°42'0 0.0
2014-Sep-12 09:34N 43°34' W 005°42'0 0.0
2014-Sep-12 08:34N 43°34' W 005°42'0 0.0
2014-Sep-12 07:33N 43°34' W 005°42'0 0.0
2014-Sep-12 06:34N 43°34' W 005°42'0 0.0
2014-Sep-12 05:34N 43°34' W 005°42'0 0.0
2014-Sep-12 04:34N 43°34' W 005°42'2 2.3
2014-Sep-12 03:33N 43°36' W 005°40'17912.8
2014-Sep-11 13:32N 46°35' W 005°52'28111.2
2014-Sep-10 12:33N 49°36' W 000°30'1615.5
2014-Sep-10 11:33N 49°30' W 000°08'1212.1
2014-Sep-10 10:33N 49°26' E 000°09'1111.0
2014-Sep-10 09:33N 49°28' E 000°26'7 6.0
2014-Sep-10 08:25N 49°26' E 000°36'  
2014-Sep-07 21:33N 49°28' E 000°33'1111.1
2014-Sep-07 20:33N 49°26' E 000°16'1313.0
2014-Sep-07 19:33N 49°29' W 000°04'1313.5
2014-Sep-07 18:33N 49°38' W 000°19'1714.4
2014-Sep-07 17:23N 49°54' W 000°24'3913.7
2014-Sep-07 14:33N 50°29' E 000°03'1615.6
2014-Sep-07 13:33N 50°34' E 000°26'1514.9
2014-Sep-07 12:33N 50°40' E 000°48'1413.8
2014-Sep-07 11:34N 50°48' E 001°06'1312.3
2014-Sep-07 10:31N 50°57' E 001°20'1111.6
2014-Sep-07 09:34N 51°05' E 001°33'1211.6
2014-Sep-07 08:34N 51°13' E 001°45'1413.6
2014-Sep-07 07:34N 51°24' E 001°58'1312.5
2014-Sep-07 06:33N 51°20' E 002°17'1913.7
2014-Sep-07 05:08N 51°22' E 002°48'915.0
2014-Sep-07 04:34N 51°24' E 003°02'1615.6
2014-Sep-07 03:33N 51°25' E 003°27'1010.1
2014-Sep-07 02:33N 51°23' E 003°43'1211.9
2014-Sep-07 01:33N 51°26' E 004°02'9 9.5
2014-Sep-07 00:33N 51°21' E 004°15'5 5.4
2014-Sep-06 23:34N 51°17' E 004°20'0 0.0
2014-Sep-06 22:34N 51°17' E 004°20'2 2.4
2014-Sep-06 21:31N 51°16' E 004°24'0 0.0
2014-Sep-06 20:28N 51°16' E 004°24'0 0.0
2014-Sep-06 19:31N 51°16' E 004°24'0 0.0
2014-Sep-06 18:31N 51°16' E 004°24'0 0.0
2014-Sep-06 17:31N 51°16' E 004°24'0 0.0
2014-Sep-06 16:31N 51°16' E 004°24'0 0.0
2014-Sep-06 15:31N 51°16' E 004°24'0 0.0
2014-Sep-06 14:31N 51°16' E 004°24'0 0.0
2014-Sep-06 13:31N 51°16' E 004°24'0 0.0
2014-Sep-06 12:31N 51°16' E 004°24'0 0.0
2014-Sep-06 11:31N 51°16' E 004°24'0 0.0
2014-Sep-06 10:31N 51°16' E 004°24'0 0.0
2014-Sep-06 09:31N 51°16' E 004°24'0 0.0
2014-Sep-06 08:31N 51°16' E 004°24'0 0.0
2014-Sep-06 07:31N 51°16' E 004°24'0 0.0
2014-Sep-06 06:31N 51°16' E 004°24'0 0.0
2014-Sep-06 05:31N 51°16' E 004°24'0 0.0
2014-Sep-06 04:31N 51°16' E 004°24'0 0.0
2014-Sep-06 03:31N 51°16' E 004°24'0 0.0
2014-Sep-06 02:31N 51°16' E 004°24'0 0.0
2014-Sep-06 01:31N 51°16' E 004°24'0 0.0
2014-Sep-06 00:31N 51°16' E 004°24'0 0.0
2014-Sep-05 23:31N 51°16' E 004°24'0 0.0
2014-Sep-05 22:31N 51°16' E 004°24'0 0.0
2014-Sep-05 21:31N 51°16' E 004°24'0 0.0
2014-Sep-05 20:31N 51°16' E 004°24'0 0.0
2014-Sep-05 19:31N 51°16' E 004°24'0 0.0
2014-Sep-05 18:31N 51°16' E 004°24'0 0.0
2014-Sep-05 17:31N 51°16' E 004°24'0 0.0
2014-Sep-05 16:31N 51°16' E 004°24'0 0.0
2014-Sep-05 15:31N 51°16' E 004°24'0 0.0
2014-Sep-05 14:31N 51°16' E 004°24'0 0.0
2014-Sep-05 13:31N 51°16' E 004°24'0 0.0
2014-Sep-05 12:31N 51°16' E 004°24'0 0.0
2014-Sep-05 11:31N 51°16' E 004°24'0 0.0
2014-Sep-05 10:31N 51°16' E 004°24'0 0.0
2014-Sep-05 09:31N 51°16' E 004°24'0 0.0
2014-Sep-05 08:31N 51°16' E 004°24'0 0.0
2014-Sep-05 07:31N 51°16' E 004°24'0 0.0
2014-Sep-05 06:31N 51°16' E 004°24'0 0.0
2014-Sep-05 05:31N 51°16' E 004°24'0 0.0
2014-Sep-05 04:31N 51°16' E 004°24'0 0.0
2014-Sep-05 03:31N 51°16' E 004°24'0 0.0
2014-Sep-05 02:31N 51°16' E 004°24'0 0.0
2014-Sep-05 01:31N 51°16' E 004°24'0 0.0
2014-Sep-05 00:31N 51°16' E 004°24'0 0.0
2014-Sep-04 23:31N 51°16' E 004°24'0 0.0
2014-Sep-04 22:31N 51°16' E 004°24'0 0.0
2014-Sep-04 21:31N 51°16' E 004°24'0 0.0
2014-Sep-04 20:31N 51°16' E 004°24'0 0.0
2014-Sep-04 19:31N 51°16' E 004°24'0 0.0
2014-Sep-04 18:31N 51°16' E 004°24'0 0.0
2014-Sep-04 17:31N 51°16' E 004°24'0 0.0
2014-Sep-04 16:31N 51°16' E 004°24'0 0.0
2014-Sep-04 15:31N 51°16' E 004°24'0 0.0
2014-Sep-04 14:31N 51°16' E 004°24'0 0.0
2014-Sep-04 13:28N 51°16' E 004°24'0 0.0
2014-Sep-04 12:31N 51°16' E 004°24'0 0.0
2014-Sep-04 11:31N 51°16' E 004°24'0 0.0
2014-Sep-04 10:31N 51°16' E 004°24'0 0.0
2014-Sep-04 09:31N 51°16' E 004°24'0 0.0
2014-Sep-04 08:31N 51°16' E 004°24'0 0.0
2014-Sep-04 07:31N 51°16' E 004°24'0 0.0
2014-Sep-04 06:31N 51°16' E 004°24'0 0.0
2014-Sep-04 05:31N 51°16' E 004°24'0 0.0
2014-Sep-04 04:31N 51°16' E 004°24'0 0.0
2014-Sep-04 03:31N 51°16' E 004°24'0 0.0
2014-Sep-04 02:31N 51°16' E 004°24'0 0.0
2014-Sep-04 01:31N 51°16' E 004°24'0 0.0
2014-Sep-04 00:31N 51°16' E 004°24'0 0.0
2014-Sep-03 23:31N 51°16' E 004°24'0 0.0
2014-Sep-03 22:31N 51°16' E 004°24'  
Track history (hours):
 
Tides and Currents Weather Stations Pressure Air Temp Water Temp Dewpoint Dewpoint Depression Visibility Wind Speed Wind Dir Waves Ship Positions

Safmarine Limpopo

Last reported at 2014-Sep-13 21:34 UTC. Time now 2014-Sep-22 00:17 UTC.
Position N 43°34' W 005°42'.
Warning: this ship's position is 8 days out of date.

Length 140 m; draft 8.6 m.

Type: Ship (hazmat cat A). MMSI: 417222324.

Date/timePositionNaut miles runAvg speedWind from/ knotsBaromVisibWave heightAir tempDewpointWater temp
2014-Sep-13 21:34N 43°34' W 005°42'0 0.0
2014-Sep-13 20:34N 43°34' W 005°42'0 0.0
2014-Sep-13 19:33N 43°34' W 005°42'0 0.0
2014-Sep-13 18:34N 43°34' W 005°42'0 0.0
2014-Sep-13 17:34N 43°34' W 005°42'0 0.0
2014-Sep-13 16:34N 43°34' W 005°42'0 0.0
2014-Sep-13 15:34N 43°34' W 005°42'0 0.0
2014-Sep-13 14:33N 43°34' W 005°42'0 0.0
2014-Sep-13 13:34N 43°34' W 005°42'0 0.0
2014-Sep-13 12:34N 43°34' W 005°42'0 0.0
2014-Sep-13 11:33N 43°34' W 005°42'0 0.0
2014-Sep-13 10:34N 43°34' W 005°42'0 0.0
2014-Sep-13 09:34N 43°34' W 005°42'0 0.0
2014-Sep-13 08:34N 43°34' W 005°42'0 0.0
2014-Sep-13 07:33N 43°34' W 005°42'0 0.0
2014-Sep-13 06:34N 43°34' W 005°42'0 0.0
2014-Sep-13 05:34N 43°34' W 005°42'0 0.0
2014-Sep-13 04:33N 43°34' W 005°42'0 0.0
2014-Sep-13 03:34N 43°34' W 005°42'0 0.0
2014-Sep-13 02:34N 43°34' W 005°42'0 0.0
2014-Sep-13 01:34N 43°34' W 005°42'0 0.0
2014-Sep-13 00:33N 43°34' W 005°42'0 0.0
2014-Sep-12 23:34N 43°34' W 005°42'0 0.0
2014-Sep-12 22:34N 43°34' W 005°42'0 0.0
2014-Sep-12 21:34N 43°34' W 005°42'0 0.0
2014-Sep-12 20:34N 43°34' W 005°42'0 0.0
2014-Sep-12 19:34N 43°34' W 005°42'0 0.0
2014-Sep-12 18:33N 43°34' W 005°42'0 0.0
2014-Sep-12 17:34N 43°34' W 005°42'0 0.0
2014-Sep-12 16:34N 43°34' W 005°42'0 0.0
2014-Sep-12 15:34N 43°34' W 005°42'0 0.0
2014-Sep-12 14:34N 43°34' W 005°42'0 0.0
2014-Sep-12 13:34N 43°34' W 005°42'0 0.0
2014-Sep-12 12:34N 43°34' W 005°42'0 0.0
2014-Sep-12 11:34N 43°34' W 005°42'0 0.0
2014-Sep-12 10:33N 43°34' W 005°42'0 0.0
2014-Sep-12 09:34N 43°34' W 005°42'0 0.0
2014-Sep-12 08:34N 43°34' W 005°42'0 0.0
2014-Sep-12 07:33N 43°34' W 005°42'0 0.0
2014-Sep-12 06:34N 43°34' W 005°42'0 0.0
2014-Sep-12 05:34N 43°34' W 005°42'0 0.0
2014-Sep-12 04:34N 43°34' W 005°42'2 2.3
2014-Sep-12 03:33N 43°36' W 005°40'17912.8
2014-Sep-11 13:32N 46°35' W 005°52'28111.2
2014-Sep-10 12:33N 49°36' W 000°30'1615.5
2014-Sep-10 11:33N 49°30' W 000°08'1212.1
2014-Sep-10 10:33N 49°26' E 000°09'1111.0
2014-Sep-10 09:33N 49°28' E 000°26'7 6.0
2014-Sep-10 08:25N 49°26' E 000°36'  
2014-Sep-07 21:33N 49°28' E 000°33'1111.1
2014-Sep-07 20:33N 49°26' E 000°16'1313.0
2014-Sep-07 19:33N 49°29' W 000°04'1313.5
2014-Sep-07 18:33N 49°38' W 000°19'1714.4
2014-Sep-07 17:23N 49°54' W 000°24'3913.7
2014-Sep-07 14:33N 50°29' E 000°03'1615.6
2014-Sep-07 13:33N 50°34' E 000°26'1514.9
2014-Sep-07 12:33N 50°40' E 000°48'1413.8
2014-Sep-07 11:34N 50°48' E 001°06'1312.3
2014-Sep-07 10:31N 50°57' E 001°20'1111.6
2014-Sep-07 09:34N 51°05' E 001°33'1211.6
2014-Sep-07 08:34N 51°13' E 001°45'1413.6
2014-Sep-07 07:34N 51°24' E 001°58'1312.5
2014-Sep-07 06:33N 51°20' E 002°17'1913.7
2014-Sep-07 05:08N 51°22' E 002°48'915.0
2014-Sep-07 04:34N 51°24' E 003°02'1615.6
2014-Sep-07 03:33N 51°25' E 003°27'1010.1
2014-Sep-07 02:33N 51°23' E 003°43'1211.9
2014-Sep-07 01:33N 51°26' E 004°02'9 9.5
2014-Sep-07 00:33N 51°21' E 004°15'5 5.4
2014-Sep-06 23:34N 51°17' E 004°20'0 0.0
2014-Sep-06 22:34N 51°17' E 004°20'2 2.4
2014-Sep-06 21:31N 51°16' E 004°24'0 0.0
2014-Sep-06 20:28N 51°16' E 004°24'0 0.0
2014-Sep-06 19:31N 51°16' E 004°24'0 0.0
2014-Sep-06 18:31N 51°16' E 004°24'0 0.0
2014-Sep-06 17:31N 51°16' E 004°24'0 0.0
2014-Sep-06 16:31N 51°16' E 004°24'0 0.0
2014-Sep-06 15:31N 51°16' E 004°24'0 0.0
2014-Sep-06 14:31N 51°16' E 004°24'0 0.0
2014-Sep-06 13:31N 51°16' E 004°24'0 0.0
2014-Sep-06 12:31N 51°16' E 004°24'0 0.0
2014-Sep-06 11:31N 51°16' E 004°24'0 0.0
2014-Sep-06 10:31N 51°16' E 004°24'0 0.0
2014-Sep-06 09:31N 51°16' E 004°24'0 0.0
2014-Sep-06 08:31N 51°16' E 004°24'0 0.0
2014-Sep-06 07:31N 51°16' E 004°24'0 0.0
2014-Sep-06 06:31N 51°16' E 004°24'0 0.0
2014-Sep-06 05:31N 51°16' E 004°24'0 0.0
2014-Sep-06 04:31N 51°16' E 004°24'0 0.0
2014-Sep-06 03:31N 51°16' E 004°24'0 0.0
2014-Sep-06 02:31N 51°16' E 004°24'0 0.0
2014-Sep-06 01:31N 51°16' E 004°24'0 0.0
2014-Sep-06 00:31N 51°16' E 004°24'0 0.0
2014-Sep-05 23:31N 51°16' E 004°24'0 0.0
2014-Sep-05 22:31N 51°16' E 004°24'0 0.0
2014-Sep-05 21:31N 51°16' E 004°24'0 0.0
2014-Sep-05 20:31N 51°16' E 004°24'0 0.0
2014-Sep-05 19:31N 51°16' E 004°24'0 0.0
2014-Sep-05 18:31N 51°16' E 004°24'0 0.0
2014-Sep-05 17:31N 51°16' E 004°24'0 0.0
2014-Sep-05 16:31N 51°16' E 004°24'0 0.0
2014-Sep-05 15:31N 51°16' E 004°24'0 0.0
2014-Sep-05 14:31N 51°16' E 004°24'0 0.0
2014-Sep-05 13:31N 51°16' E 004°24'0 0.0
2014-Sep-05 12:31N 51°16' E 004°24'0 0.0
2014-Sep-05 11:31N 51°16' E 004°24'0 0.0
2014-Sep-05 10:31N 51°16' E 004°24'0 0.0
2014-Sep-05 09:31N 51°16' E 004°24'0 0.0
2014-Sep-05 08:31N 51°16' E 004°24'0 0.0
2014-Sep-05 07:31N 51°16' E 004°24'0 0.0
2014-Sep-05 06:31N 51°16' E 004°24'0 0.0
2014-Sep-05 05:31N 51°16' E 004°24'0 0.0
2014-Sep-05 04:31N 51°16' E 004°24'0 0.0
2014-Sep-05 03:31N 51°16' E 004°24'0 0.0
2014-Sep-05 02:31N 51°16' E 004°24'0 0.0
2014-Sep-05 01:31N 51°16' E 004°24'0 0.0
2014-Sep-05 00:31N 51°16' E 004°24'0 0.0
2014-Sep-04 23:31N 51°16' E 004°24'0 0.0
2014-Sep-04 22:31N 51°16' E 004°24'0 0.0
2014-Sep-04 21:31N 51°16' E 004°24'0 0.0
2014-Sep-04 20:31N 51°16' E 004°24'0 0.0
2014-Sep-04 19:31N 51°16' E 004°24'0 0.0
2014-Sep-04 18:31N 51°16' E 004°24'0 0.0
2014-Sep-04 17:31N 51°16' E 004°24'0 0.0
2014-Sep-04 16:31N 51°16' E 004°24'0 0.0
2014-Sep-04 15:31N 51°16' E 004°24'0 0.0
2014-Sep-04 14:31N 51°16' E 004°24'0 0.0
2014-Sep-04 13:28N 51°16' E 004°24'0 0.0
2014-Sep-04 12:31N 51°16' E 004°24'0 0.0
2014-Sep-04 11:31N 51°16' E 004°24'0 0.0
2014-Sep-04 10:31N 51°16' E 004°24'0 0.0
2014-Sep-04 09:31N 51°16' E 004°24'0 0.0
2014-Sep-04 08:31N 51°16' E 004°24'0 0.0
2014-Sep-04 07:31N 51°16' E 004°24'0 0.0
2014-Sep-04 06:31N 51°16' E 004°24'0 0.0
2014-Sep-04 05:31N 51°16' E 004°24'0 0.0
2014-Sep-04 04:31N 51°16' E 004°24'0 0.0
2014-Sep-04 03:31N 51°16' E 004°24'0 0.0
2014-Sep-04 02:31N 51°16' E 004°24'0 0.0
2014-Sep-04 01:31N 51°16' E 004°24'0 0.0
2014-Sep-04 00:31N 51°16' E 004°24'0 0.0
2014-Sep-03 23:31N 51°16' E 004°24'0 0.0
2014-Sep-03 22:31N 51°16' E 004°24'  

Dump ship's entire track history